sensor_id;sensor_type;location;lat;lon;timestamp;P1;durP1;ratioP1;P2;durP2;ratioP2
79330;SDS011;68797;49.782;19.054;2023-07-20T00:04:23;7.38;;;5.30;;
79330;SDS011;68797;49.782;19.054;2023-07-20T00:06:49;10.13;;;5.53;;
79330;SDS011;68797;49.782;19.054;2023-07-20T00:09:18;9.10;;;5.32;;
79330;SDS011;68797;49.782;19.054;2023-07-20T00:11:50;6.93;;;4.35;;
79330;SDS011;68797;49.782;19.054;2023-07-20T00:14:20;9.25;;;5.03;;
79330;SDS011;68797;49.782;19.054;2023-07-20T00:16:54;8.95;;;5.03;;
79330;SDS011;68797;49.782;19.054;2023-07-20T00:19:23;8.68;;;5.07;;
79330;SDS011;68797;49.782;19.054;2023-07-20T00:21:53;8.80;;;5.70;;
79330;SDS011;68797;49.782;19.054;2023-07-20T00:24:21;8.43;;;4.90;;
79330;SDS011;68797;49.782;19.054;2023-07-20T00:26:48;9.80;;;5.30;;
79330;SDS011;68797;49.782;19.054;2023-07-20T00:29:17;7.07;;;4.28;;
79330;SDS011;68797;49.782;19.054;2023-07-20T00:31:44;7.10;;;4.53;;
79330;SDS011;68797;49.782;19.054;2023-07-20T00:34:13;7.47;;;4.45;;
79330;SDS011;68797;49.782;19.054;2023-07-20T00:36:39;6.28;;;4.35;;
79330;SDS011;68797;49.782;19.054;2023-07-20T00:39:09;9.23;;;3.97;;
79330;SDS011;68797;49.782;19.054;2023-07-20T00:41:36;5.70;;;3.45;;
79330;SDS011;68797;49.782;19.054;2023-07-20T00:44:04;6.70;;;3.45;;
79330;SDS011;68797;49.782;19.054;2023-07-20T00:46:37;4.93;;;2.97;;
79330;SDS011;68797;49.782;19.054;2023-07-20T00:49:04;8.35;;;3.08;;
79330;SDS011;68797;49.782;19.054;2023-07-20T00:51:33;7.65;;;3.40;;
79330;SDS011;68797;49.782;19.054;2023-07-20T00:54:01;7.93;;;3.47;;
79330;SDS011;68797;49.782;19.054;2023-07-20T00:56:28;5.97;;;3.15;;
79330;SDS011;68797;49.782;19.054;2023-07-20T00:58:56;5.35;;;3.35;;
79330;SDS011;68797;49.782;19.054;2023-07-20T01:01:24;5.65;;;2.90;;
79330;SDS011;68797;49.782;19.054;2023-07-20T01:03:55;7.20;;;3.63;;
79330;SDS011;68797;49.782;19.054;2023-07-20T01:06:45;6.30;;;3.72;;
79330;SDS011;68797;49.782;19.054;2023-07-20T01:09:33;4.47;;;3.38;;
79330;SDS011;68797;49.782;19.054;2023-07-20T01:12:20;7.63;;;3.63;;
79330;SDS011;68797;49.782;19.054;2023-07-20T01:15:30;9.98;;;3.85;;
79330;SDS011;68797;49.782;19.054;2023-07-20T01:18:07;7.72;;;3.22;;
79330;SDS011;68797;49.782;19.054;2023-07-20T01:20:42;7.78;;;3.70;;
79330;SDS011;68797;49.782;19.054;2023-07-20T01:32:50;6.47;;;3.75;;
79330;SDS011;68797;49.782;19.054;2023-07-20T01:35:37;5.28;;;3.30;;
79330;SDS011;68797;49.782;19.054;2023-07-20T01:38:21;12.00;;;5.22;;
79330;SDS011;68797;49.782;19.054;2023-07-20T01:41:07;4.95;;;3.40;;
79330;SDS011;68797;49.782;19.054;2023-07-20T01:43:57;6.03;;;3.47;;
79330;SDS011;68797;49.782;19.054;2023-07-20T01:46:46;7.15;;;3.53;;
79330;SDS011;68797;49.782;19.054;2023-07-20T01:49:19;6.10;;;3.22;;
79330;SDS011;68797;49.782;19.054;2023-07-20T01:52:05;8.20;;;3.45;;
79330;SDS011;68797;49.782;19.054;2023-07-20T01:54:48;4.63;;;3.15;;
79330;SDS011;68797;49.782;19.054;2023-07-20T01:57:48;5.20;;;2.80;;
79330;SDS011;68797;49.782;19.054;2023-07-20T02:00:39;6.28;;;3.40;;
79330;SDS011;68797;49.782;19.054;2023-07-20T02:03:32;7.55;;;3.20;;
79330;SDS011;68797;49.782;19.054;2023-07-20T02:08:59;7.25;;;2.92;;
79330;SDS011;68797;49.782;19.054;2023-07-20T02:11:36;4.50;;;2.63;;
79330;SDS011;68797;49.782;19.054;2023-07-20T02:14:06;5.07;;;3.10;;
79330;SDS011;68797;49.782;19.054;2023-07-20T02:17:05;5.43;;;2.90;;
79330;SDS011;68797;49.782;19.054;2023-07-20T02:22:49;5.80;;;3.38;;
79330;SDS011;68797;49.782;19.054;2023-07-20T02:25:52;4.97;;;2.78;;
79330;SDS011;68797;49.782;19.054;2023-07-20T02:28:41;8.32;;;3.28;;
79330;SDS011;68797;49.782;19.054;2023-07-20T02:31:53;6.88;;;3.63;;
79330;SDS011;68797;49.782;19.054;2023-07-20T02:38:45;4.60;;;2.65;;
79330;SDS011;68797;49.782;19.054;2023-07-20T02:41:56;3.92;;;2.65;;
79330;SDS011;68797;49.782;19.054;2023-07-20T02:45:03;5.85;;;3.20;;
79330;SDS011;68797;49.782;19.054;2023-07-20T02:48:09;4.03;;;2.70;;
79330;SDS011;68797;49.782;19.054;2023-07-20T02:51:00;5.80;;;2.67;;
79330;SDS011;68797;49.782;19.054;2023-07-20T02:53:57;3.85;;;2.70;;
79330;SDS011;68797;49.782;19.054;2023-07-20T02:57:26;5.47;;;3.10;;
79330;SDS011;68797;49.782;19.054;2023-07-20T03:03:22;4.65;;;2.80;;
79330;SDS011;68797;49.782;19.054;2023-07-20T03:09:43;4.05;;;2.53;;
79330;SDS011;68797;49.782;19.054;2023-07-20T03:12:24;5.72;;;2.95;;
79330;SDS011;68797;49.782;19.054;2023-07-20T03:15:09;4.95;;;2.33;;
79330;SDS011;68797;49.782;19.054;2023-07-20T03:20:53;4.82;;;2.97;;
79330;SDS011;68797;49.782;19.054;2023-07-20T03:23:36;3.90;;;2.35;;
79330;SDS011;68797;49.782;19.054;2023-07-20T03:26:20;4.18;;;2.55;;
79330;SDS011;68797;49.782;19.054;2023-07-20T03:29:04;4.00;;;2.35;;
79330;SDS011;68797;49.782;19.054;2023-07-20T03:31:50;4.47;;;2.05;;
79330;SDS011;68797;49.782;19.054;2023-07-20T03:34:38;5.78;;;2.50;;
79330;SDS011;68797;49.782;19.054;2023-07-20T03:37:50;4.82;;;2.40;;
79330;SDS011;68797;49.782;19.054;2023-07-20T03:40:58;3.78;;;2.20;;
79330;SDS011;68797;49.782;19.054;2023-07-20T03:43:53;4.28;;;2.47;;
79330;SDS011;68797;49.782;19.054;2023-07-20T03:46:58;4.22;;;2.10;;
79330;SDS011;68797;49.782;19.054;2023-07-20T03:49:43;4.90;;;2.60;;
79330;SDS011;68797;49.782;19.054;2023-07-20T03:52:45;4.03;;;2.47;;
79330;SDS011;68797;49.782;19.054;2023-07-20T03:58:48;5.95;;;2.33;;
79330;SDS011;68797;49.782;19.054;2023-07-20T04:01:18;5.20;;;2.30;;
79330;SDS011;68797;49.782;19.054;2023-07-20T04:04:15;3.60;;;2.40;;
79330;SDS011;68797;49.782;19.054;2023-07-20T04:06:50;3.45;;;2.40;;
79330;SDS011;68797;49.782;19.054;2023-07-20T04:09:31;4.00;;;2.60;;
79330;SDS011;68797;49.782;19.054;2023-07-20T04:14:42;3.63;;;2.40;;
79330;SDS011;68797;49.782;19.054;2023-07-20T04:17:25;4.18;;;1.90;;
79330;SDS011;68797;49.782;19.054;2023-07-20T04:19:57;4.18;;;2.20;;
79330;SDS011;68797;49.782;19.054;2023-07-20T04:22:32;5.72;;;2.65;;
79330;SDS011;68797;49.782;19.054;2023-07-20T04:25:10;4.40;;;2.28;;
79330;SDS011;68797;49.782;19.054;2023-07-20T04:27:49;4.70;;;2.60;;
79330;SDS011;68797;49.782;19.054;2023-07-20T04:30:22;4.50;;;2.60;;
79330;SDS011;68797;49.782;19.054;2023-07-20T04:32:57;6.20;;;2.47;;
79330;SDS011;68797;49.782;19.054;2023-07-20T04:35:48;4.13;;;2.35;;
79330;SDS011;68797;49.782;19.054;2023-07-20T04:38:34;5.25;;;2.17;;
79330;SDS011;68797;49.782;19.054;2023-07-20T04:41:14;3.60;;;2.42;;
79330;SDS011;68797;49.782;19.054;2023-07-20T04:43:55;4.53;;;2.40;;
79330;SDS011;68797;49.782;19.054;2023-07-20T04:46:37;5.10;;;2.60;;
79330;SDS011;68797;49.782;19.054;2023-07-20T04:49:12;3.83;;;2.20;;
79330;SDS011;68797;49.782;19.054;2023-07-20T04:51:45;5.13;;;2.42;;
79330;SDS011;68797;49.782;19.054;2023-07-20T04:54:26;4.95;;;2.65;;
79330;SDS011;68797;49.782;19.054;2023-07-20T04:57:01;4.20;;;2.10;;
79330;SDS011;68797;49.782;19.054;2023-07-20T04:59:33;4.82;;;2.78;;
79330;SDS011;68797;49.782;19.054;2023-07-20T05:02:06;3.70;;;2.28;;
79330;SDS011;68797;49.782;19.054;2023-07-20T05:04:47;4.32;;;2.65;;
79330;SDS011;68797;49.782;19.054;2023-07-20T05:07:47;5.50;;;2.72;;
79330;SDS011;68797;49.782;19.054;2023-07-20T05:10:29;6.50;;;2.83;;
79330;SDS011;68797;49.782;19.054;2023-07-20T05:13:02;3.97;;;2.90;;
79330;SDS011;68797;49.782;19.054;2023-07-20T05:15:33;4.03;;;2.63;;
79330;SDS011;68797;49.782;19.054;2023-07-20T05:18:07;4.20;;;2.50;;
79330;SDS011;68797;49.782;19.054;2023-07-20T05:20:47;4.80;;;2.65;;
79330;SDS011;68797;49.782;19.054;2023-07-20T05:23:24;5.35;;;3.22;;
79330;SDS011;68797;49.782;19.054;2023-07-20T05:26:04;4.63;;;2.53;;
79330;SDS011;68797;49.782;19.054;2023-07-20T05:28:39;4.90;;;2.65;;
79330;SDS011;68797;49.782;19.054;2023-07-20T05:31:28;8.32;;;2.90;;
79330;SDS011;68797;49.782;19.054;2023-07-20T05:33:59;5.05;;;2.70;;
79330;SDS011;68797;49.782;19.054;2023-07-20T05:36:29;8.05;;;2.75;;
79330;SDS011;68797;49.782;19.054;2023-07-20T05:38:58;4.35;;;2.47;;
79330;SDS011;68797;49.782;19.054;2023-07-20T05:41:26;3.65;;;2.65;;
79330;SDS011;68797;49.782;19.054;2023-07-20T05:44:00;6.22;;;2.80;;
79330;SDS011;68797;49.782;19.054;2023-07-20T05:47:07;4.40;;;3.13;;
79330;SDS011;68797;49.782;19.054;2023-07-20T05:49:43;6.03;;;2.70;;
79330;SDS011;68797;49.782;19.054;2023-07-20T05:52:19;4.65;;;2.70;;
79330;SDS011;68797;49.782;19.054;2023-07-20T05:54:57;4.15;;;3.03;;
79330;SDS011;68797;49.782;19.054;2023-07-20T05:57:27;4.47;;;2.70;;
79330;SDS011;68797;49.782;19.054;2023-07-20T06:00:19;6.30;;;2.75;;
79330;SDS011;68797;49.782;19.054;2023-07-20T06:03:08;4.95;;;2.90;;
79330;SDS011;68797;49.782;19.054;2023-07-20T06:05:57;6.28;;;2.80;;
79330;SDS011;68797;49.782;19.054;2023-07-20T06:11:15;4.47;;;2.65;;
79330;SDS011;68797;49.782;19.054;2023-07-20T06:13:53;5.57;;;2.70;;
79330;SDS011;68797;49.782;19.054;2023-07-20T06:16:25;4.00;;;2.30;;
79330;SDS011;68797;49.782;19.054;2023-07-20T06:19:14;5.65;;;2.63;;
79330;SDS011;68797;49.782;19.054;2023-07-20T06:21:47;3.75;;;2.40;;
79330;SDS011;68797;49.782;19.054;2023-07-20T06:24:30;5.63;;;2.63;;
79330;SDS011;68797;49.782;19.054;2023-07-20T06:27:12;4.20;;;2.85;;
79330;SDS011;68797;49.782;19.054;2023-07-20T06:29:48;7.32;;;3.08;;
79330;SDS011;68797;49.782;19.054;2023-07-20T06:32:41;3.15;;;2.30;;
79330;SDS011;68797;49.782;19.054;2023-07-20T06:35:17;5.28;;;2.20;;
79330;SDS011;68797;49.782;19.054;2023-07-20T06:37:53;4.90;;;2.25;;
79330;SDS011;68797;49.782;19.054;2023-07-20T06:40:31;4.60;;;2.55;;
79330;SDS011;68797;49.782;19.054;2023-07-20T06:43:19;3.40;;;2.00;;
79330;SDS011;68797;49.782;19.054;2023-07-20T06:45:54;4.70;;;2.53;;
79330;SDS011;68797;49.782;19.054;2023-07-20T06:48:46;3.58;;;2.22;;
79330;SDS011;68797;49.782;19.054;2023-07-20T06:51:28;4.32;;;2.20;;
79330;SDS011;68797;49.782;19.054;2023-07-20T06:54:17;6.25;;;2.40;;
79330;SDS011;68797;49.782;19.054;2023-07-20T06:56:51;3.08;;;2.08;;
79330;SDS011;68797;49.782;19.054;2023-07-20T06:59:29;3.35;;;2.17;;
79330;SDS011;68797;49.782;19.054;2023-07-20T07:02:08;3.17;;;2.05;;
79330;SDS011;68797;49.782;19.054;2023-07-20T07:04:50;4.13;;;2.15;;
79330;SDS011;68797;49.782;19.054;2023-07-20T07:07:29;3.47;;;2.08;;
79330;SDS011;68797;49.782;19.054;2023-07-20T07:10:08;2.50;;;1.80;;
79330;SDS011;68797;49.782;19.054;2023-07-20T07:12:39;3.85;;;2.33;;
79330;SDS011;68797;49.782;19.054;2023-07-20T07:15:12;3.05;;;2.13;;
79330;SDS011;68797;49.782;19.054;2023-07-20T07:17:49;2.90;;;1.80;;
79330;SDS011;68797;49.782;19.054;2023-07-20T07:20:25;3.28;;;1.80;;
79330;SDS011;68797;49.782;19.054;2023-07-20T07:22:53;2.92;;;2.00;;
79330;SDS011;68797;49.782;19.054;2023-07-20T07:25:23;4.38;;;2.00;;
79330;SDS011;68797;49.782;19.054;2023-07-20T07:28:20;4.15;;;2.10;;
79330;SDS011;68797;49.782;19.054;2023-07-20T07:30:57;3.03;;;2.05;;
79330;SDS011;68797;49.782;19.054;2023-07-20T07:33:45;3.53;;;1.88;;
79330;SDS011;68797;49.782;19.054;2023-07-20T07:36:21;4.40;;;2.03;;
79330;SDS011;68797;49.782;19.054;2023-07-20T07:38:53;4.75;;;2.20;;
79330;SDS011;68797;49.782;19.054;2023-07-20T07:41:24;2.80;;;1.80;;
79330;SDS011;68797;49.782;19.054;2023-07-20T07:44:07;4.07;;;2.20;;
79330;SDS011;68797;49.782;19.054;2023-07-20T07:46:47;3.85;;;1.88;;
79330;SDS011;68797;49.782;19.054;2023-07-20T07:49:31;3.72;;;2.53;;
79330;SDS011;68797;49.782;19.054;2023-07-20T07:52:23;3.03;;;1.98;;
79330;SDS011;68797;49.782;19.054;2023-07-20T07:54:56;4.15;;;2.10;;
79330;SDS011;68797;49.782;19.054;2023-07-20T07:57:28;4.38;;;2.25;;
79330;SDS011;68797;49.782;19.054;2023-07-20T08:00:04;3.83;;;2.15;;
79330;SDS011;68797;49.782;19.054;2023-07-20T08:02:44;3.67;;;2.08;;
79330;SDS011;68797;49.782;19.054;2023-07-20T08:05:24;4.43;;;2.33;;
79330;SDS011;68797;49.782;19.054;2023-07-20T08:08:07;4.78;;;2.15;;
79330;SDS011;68797;49.782;19.054;2023-07-20T08:10:48;4.68;;;2.53;;
79330;SDS011;68797;49.782;19.054;2023-07-20T08:13:18;4.57;;;2.15;;
79330;SDS011;68797;49.782;19.054;2023-07-20T08:15:50;3.78;;;2.83;;
79330;SDS011;68797;49.782;19.054;2023-07-20T08:18:25;6.10;;;2.17;;
79330;SDS011;68797;49.782;19.054;2023-07-20T08:21:18;4.63;;;2.28;;
79330;SDS011;68797;49.782;19.054;2023-07-20T08:23:55;3.92;;;2.63;;
79330;SDS011;68797;49.782;19.054;2023-07-20T08:26:32;4.03;;;2.40;;
79330;SDS011;68797;49.782;19.054;2023-07-20T08:29:11;4.30;;;2.10;;
79330;SDS011;68797;49.782;19.054;2023-07-20T08:31:49;2.95;;;2.20;;
79330;SDS011;68797;49.782;19.054;2023-07-20T08:34:36;3.65;;;2.30;;
79330;SDS011;68797;49.782;19.054;2023-07-20T08:37:22;3.33;;;2.10;;
79330;SDS011;68797;49.782;19.054;2023-07-20T08:39:55;4.95;;;2.22;;
79330;SDS011;68797;49.782;19.054;2023-07-20T08:42:24;2.92;;;1.92;;
79330;SDS011;68797;49.782;19.054;2023-07-20T08:45:06;4.13;;;2.13;;
79330;SDS011;68797;49.782;19.054;2023-07-20T08:48:03;4.07;;;2.35;;
79330;SDS011;68797;49.782;19.054;2023-07-20T08:50:37;4.40;;;2.30;;
79330;SDS011;68797;49.782;19.054;2023-07-20T08:53:13;6.50;;;2.58;;
79330;SDS011;68797;49.782;19.054;2023-07-20T08:55:55;3.85;;;2.13;;
79330;SDS011;68797;49.782;19.054;2023-07-20T09:01:08;3.53;;;2.08;;
79330;SDS011;68797;49.782;19.054;2023-07-20T09:03:54;3.20;;;2.20;;
79330;SDS011;68797;49.782;19.054;2023-07-20T09:06:30;3.88;;;2.30;;
79330;SDS011;68797;49.782;19.054;2023-07-20T09:09:19;5.78;;;2.47;;
79330;SDS011;68797;49.782;19.054;2023-07-20T09:11:54;3.83;;;2.45;;
79330;SDS011;68797;49.782;19.054;2023-07-20T09:14:43;5.03;;;2.13;;
79330;SDS011;68797;49.782;19.054;2023-07-20T09:17:34;4.88;;;2.03;;
79330;SDS011;68797;49.782;19.054;2023-07-20T09:20:34;3.67;;;2.30;;
79330;SDS011;68797;49.782;19.054;2023-07-20T09:23:14;3.05;;;1.90;;
79330;SDS011;68797;49.782;19.054;2023-07-20T09:26:14;3.55;;;2.30;;
79330;SDS011;68797;49.782;19.054;2023-07-20T09:29:04;3.70;;;2.33;;
79330;SDS011;68797;49.782;19.054;2023-07-20T09:32:01;4.40;;;2.55;;
79330;SDS011;68797;49.782;19.054;2023-07-20T09:34:53;4.80;;;2.88;;
79330;SDS011;68797;49.782;19.054;2023-07-20T09:37:29;4.20;;;2.25;;
79330;SDS011;68797;49.782;19.054;2023-07-20T09:40:25;2.97;;;2.20;;
79330;SDS011;68797;49.782;19.054;2023-07-20T09:43:39;3.50;;;2.30;;
79330;SDS011;68797;49.782;19.054;2023-07-20T09:46:16;2.70;;;2.10;;
79330;SDS011;68797;49.782;19.054;2023-07-20T09:48:52;3.80;;;2.50;;
79330;SDS011;68797;49.782;19.054;2023-07-20T09:51:29;3.55;;;2.20;;
79330;SDS011;68797;49.782;19.054;2023-07-20T09:54:01;3.25;;;2.38;;
79330;SDS011;68797;49.782;19.054;2023-07-20T09:56:53;2.88;;;2.15;;
79330;SDS011;68797;49.782;19.054;2023-07-20T09:59:39;5.35;;;2.25;;
79330;SDS011;68797;49.782;19.054;2023-07-20T10:02:25;5.72;;;2.55;;
79330;SDS011;68797;49.782;19.054;2023-07-20T10:05:25;4.30;;;2.65;;
79330;SDS011;68797;49.782;19.054;2023-07-20T10:08:19;3.58;;;2.38;;
79330;SDS011;68797;49.782;19.054;2023-07-20T10:11:19;3.30;;;2.05;;
79330;SDS011;68797;49.782;19.054;2023-07-20T10:14:27;3.33;;;2.20;;
79330;SDS011;68797;49.782;19.054;2023-07-20T10:20:35;4.00;;;2.38;;
79330;SDS011;68797;49.782;19.054;2023-07-20T10:23:36;3.60;;;2.13;;
79330;SDS011;68797;49.782;19.054;2023-07-20T10:26:18;3.05;;;2.10;;
79330;SDS011;68797;49.782;19.054;2023-07-20T10:28:56;5.10;;;2.40;;
79330;SDS011;68797;49.782;19.054;2023-07-20T10:31:50;2.88;;;2.08;;
79330;SDS011;68797;49.782;19.054;2023-07-20T10:34:25;3.13;;;2.10;;
79330;SDS011;68797;49.782;19.054;2023-07-20T10:37:05;3.00;;;1.90;;
79330;SDS011;68797;49.782;19.054;2023-07-20T10:39:49;2.33;;;1.85;;
79330;SDS011;68797;49.782;19.054;2023-07-20T10:42:40;5.75;;;2.38;;
79330;SDS011;68797;49.782;19.054;2023-07-20T10:45:42;4.45;;;2.30;;
79330;SDS011;68797;49.782;19.054;2023-07-20T10:48:30;2.88;;;2.20;;
79330;SDS011;68797;49.782;19.054;2023-07-20T10:51:17;3.33;;;2.05;;
79330;SDS011;68797;49.782;19.054;2023-07-20T10:53:54;5.13;;;2.70;;
79330;SDS011;68797;49.782;19.054;2023-07-20T10:56:29;4.20;;;2.30;;
79330;SDS011;68797;49.782;19.054;2023-07-20T11:02:06;3.00;;;2.00;;
79330;SDS011;68797;49.782;19.054;2023-07-20T11:04:56;4.07;;;2.17;;
79330;SDS011;68797;49.782;19.054;2023-07-20T11:07:38;4.60;;;2.08;;
79330;SDS011;68797;49.782;19.054;2023-07-20T11:14:27;4.90;;;2.22;;
79330;SDS011;68797;49.782;19.054;2023-07-20T11:17:34;3.90;;;2.25;;
79330;SDS011;68797;49.782;19.054;2023-07-20T11:20:36;4.22;;;2.40;;
79330;SDS011;68797;49.782;19.054;2023-07-20T11:23:05;5.25;;;2.30;;
79330;SDS011;68797;49.782;19.054;2023-07-20T11:25:49;5.30;;;2.45;;
79330;SDS011;68797;49.782;19.054;2023-07-20T11:28:25;5.35;;;2.47;;
79330;SDS011;68797;49.782;19.054;2023-07-20T11:31:01;2.40;;;1.80;;
79330;SDS011;68797;49.782;19.054;2023-07-20T11:33:48;4.82;;;2.40;;
79330;SDS011;68797;49.782;19.054;2023-07-20T11:36:30;2.67;;;2.30;;
79330;SDS011;68797;49.782;19.054;2023-07-20T11:39:05;4.57;;;2.20;;
79330;SDS011;68797;49.782;19.054;2023-07-20T11:44:42;3.53;;;2.38;;
79330;SDS011;68797;49.782;19.054;2023-07-20T11:47:40;3.60;;;2.30;;
79330;SDS011;68797;49.782;19.054;2023-07-20T11:50:19;3.67;;;2.25;;
79330;SDS011;68797;49.782;19.054;2023-07-20T11:53:13;3.97;;;3.30;;
79330;SDS011;68797;49.782;19.054;2023-07-20T11:56:08;3.63;;;2.47;;
79330;SDS011;68797;49.782;19.054;2023-07-20T11:58:55;4.22;;;2.28;;
79330;SDS011;68797;49.782;19.054;2023-07-20T12:01:36;5.15;;;2.60;;
79330;SDS011;68797;49.782;19.054;2023-07-20T12:04:27;4.82;;;2.83;;
79330;SDS011;68797;49.782;19.054;2023-07-20T12:07:11;5.32;;;2.92;;
79330;SDS011;68797;49.782;19.054;2023-07-20T12:09:42;5.03;;;3.10;;
79330;SDS011;68797;49.782;19.054;2023-07-20T12:15:13;5.50;;;3.35;;
79330;SDS011;68797;49.782;19.054;2023-07-20T12:17:55;4.97;;;2.83;;
79330;SDS011;68797;49.782;19.054;2023-07-20T12:20:31;5.68;;;3.33;;
79330;SDS011;68797;49.782;19.054;2023-07-20T12:23:12;7.22;;;3.03;;
79330;SDS011;68797;49.782;19.054;2023-07-20T12:26:12;4.20;;;3.03;;
79330;SDS011;68797;49.782;19.054;2023-07-20T12:28:46;5.25;;;2.78;;
79330;SDS011;68797;49.782;19.054;2023-07-20T12:37:35;3.92;;;2.30;;
79330;SDS011;68797;49.782;19.054;2023-07-20T12:43:29;3.47;;;2.40;;
79330;SDS011;68797;49.782;19.054;2023-07-20T12:46:02;5.07;;;2.65;;
79330;SDS011;68797;49.782;19.054;2023-07-20T12:48:40;2.90;;;2.20;;
79330;SDS011;68797;49.782;19.054;2023-07-20T12:51:20;4.28;;;2.55;;
79330;SDS011;68797;49.782;19.054;2023-07-20T12:54:05;3.92;;;2.65;;
79330;SDS011;68797;49.782;19.054;2023-07-20T12:56:44;4.90;;;2.60;;
79330;SDS011;68797;49.782;19.054;2023-07-20T12:59:37;3.80;;;2.90;;
79330;SDS011;68797;49.782;19.054;2023-07-20T13:02:36;6.80;;;3.25;;
79330;SDS011;68797;49.782;19.054;2023-07-20T13:05:07;4.00;;;2.47;;
79330;SDS011;68797;49.782;19.054;2023-07-20T13:07:57;6.97;;;3.00;;
79330;SDS011;68797;49.782;19.054;2023-07-20T13:10:40;5.45;;;2.70;;
79330;SDS011;68797;49.782;19.054;2023-07-20T13:13:12;4.95;;;2.95;;
79330;SDS011;68797;49.782;19.054;2023-07-20T13:16:03;4.10;;;3.03;;
79330;SDS011;68797;49.782;19.054;2023-07-20T13:19:01;5.30;;;2.90;;
79330;SDS011;68797;49.782;19.054;2023-07-20T13:22:11;4.57;;;3.35;;
79330;SDS011;68797;49.782;19.054;2023-07-20T13:29:31;6.82;;;3.22;;
79330;SDS011;68797;49.782;19.054;2023-07-20T13:41:44;7.72;;;4.13;;
79330;SDS011;68797;49.782;19.054;2023-07-20T13:45:23;4.70;;;3.08;;
79330;SDS011;68797;49.782;19.054;2023-07-20T13:48:44;7.05;;;3.00;;
79330;SDS011;68797;49.782;19.054;2023-07-20T13:56:26;5.32;;;2.72;;
79330;SDS011;68797;49.782;19.054;2023-07-20T14:00:32;3.95;;;2.83;;
79330;SDS011;68797;49.782;19.054;2023-07-20T14:08:38;3.55;;;2.53;;
79330;SDS011;68797;49.782;19.054;2023-07-20T14:11:54;3.00;;;2.55;;
79330;SDS011;68797;49.782;19.054;2023-07-20T14:15:08;4.72;;;2.88;;
79330;SDS011;68797;49.782;19.054;2023-07-20T14:21:16;4.45;;;2.80;;
79330;SDS011;68797;49.782;19.054;2023-07-20T14:24:05;4.72;;;2.85;;
79330;SDS011;68797;49.782;19.054;2023-07-20T14:30:32;6.50;;;2.63;;
79330;SDS011;68797;49.782;19.054;2023-07-20T14:33:12;3.40;;;2.75;;
79330;SDS011;68797;49.782;19.054;2023-07-20T14:36:27;5.15;;;2.80;;
79330;SDS011;68797;49.782;19.054;2023-07-20T14:39:37;3.55;;;2.67;;
79330;SDS011;68797;49.782;19.054;2023-07-20T14:42:31;5.97;;;3.03;;
79330;SDS011;68797;49.782;19.054;2023-07-20T14:48:42;3.60;;;2.83;;
79330;SDS011;68797;49.782;19.054;2023-07-20T14:58:49;3.60;;;2.80;;
79330;SDS011;68797;49.782;19.054;2023-07-20T15:01:30;4.75;;;3.08;;
79330;SDS011;68797;49.782;19.054;2023-07-20T15:07:47;4.90;;;3.42;;
79330;SDS011;68797;49.782;19.054;2023-07-20T15:10:45;5.82;;;2.70;;
79330;SDS011;68797;49.782;19.054;2023-07-20T15:16:29;6.25;;;3.28;;
79330;SDS011;68797;49.782;19.054;2023-07-20T15:20:03;4.13;;;3.30;;
79330;SDS011;68797;49.782;19.054;2023-07-20T15:22:59;5.72;;;3.90;;
79330;SDS011;68797;49.782;19.054;2023-07-20T15:29:53;3.38;;;2.65;;
79330;SDS011;68797;49.782;19.054;2023-07-20T15:33:00;4.30;;;3.00;;
79330;SDS011;68797;49.782;19.054;2023-07-20T15:39:52;3.30;;;2.30;;
79330;SDS011;68797;49.782;19.054;2023-07-20T15:43:29;4.28;;;3.38;;
79330;SDS011;68797;49.782;19.054;2023-07-20T15:46:52;5.05;;;2.38;;
79330;SDS011;68797;49.782;19.054;2023-07-20T15:53:42;6.60;;;2.35;;
79330;SDS011;68797;49.782;19.054;2023-07-20T15:57:04;3.10;;;2.17;;
79330;SDS011;68797;49.782;19.054;2023-07-20T16:05:08;3.40;;;2.42;;
79330;SDS011;68797;49.782;19.054;2023-07-20T16:08:21;2.90;;;2.00;;
79330;SDS011;68797;49.782;19.054;2023-07-20T16:11:48;3.00;;;2.00;;
79330;SDS011;68797;49.782;19.054;2023-07-20T16:18:43;2.90;;;2.10;;
79330;SDS011;68797;49.782;19.054;2023-07-20T16:29:03;3.00;;;2.03;;
79330;SDS011;68797;49.782;19.054;2023-07-20T16:32:25;2.95;;;2.05;;
79330;SDS011;68797;49.782;19.054;2023-07-20T16:35:56;2.55;;;2.00;;
79330;SDS011;68797;49.782;19.054;2023-07-20T16:39:20;2.67;;;1.90;;
79330;SDS011;68797;49.782;19.054;2023-07-20T16:50:05;2.97;;;2.08;;
79330;SDS011;68797;49.782;19.054;2023-07-20T16:57:03;2.65;;;1.80;;
79330;SDS011;68797;49.782;19.054;2023-07-20T17:00:50;2.65;;;2.00;;
79330;SDS011;68797;49.782;19.054;2023-07-20T17:04:18;2.60;;;1.90;;
79330;SDS011;68797;49.782;19.054;2023-07-20T17:07:47;3.67;;;1.73;;
79330;SDS011;68797;49.782;19.054;2023-07-20T17:14:54;3.97;;;2.00;;
79330;SDS011;68797;49.782;19.054;2023-07-20T17:18:02;2.72;;;1.77;;
79330;SDS011;68797;49.782;19.054;2023-07-20T17:21:10;3.92;;;1.88;;
79330;SDS011;68797;49.782;19.054;2023-07-20T17:24:26;3.50;;;2.00;;
79330;SDS011;68797;49.782;19.054;2023-07-20T17:27:18;2.97;;;2.20;;
79330;SDS011;68797;49.782;19.054;2023-07-20T17:30:23;2.85;;;1.70;;
79330;SDS011;68797;49.782;19.054;2023-07-20T17:33:00;2.78;;;2.00;;
79330;SDS011;68797;49.782;19.054;2023-07-20T17:35:54;3.50;;;2.17;;
79330;SDS011;68797;49.782;19.054;2023-07-20T17:38:49;2.97;;;2.20;;
79330;SDS011;68797;49.782;19.054;2023-07-20T17:42:30;2.92;;;2.10;;
79330;SDS011;68797;49.782;19.054;2023-07-20T17:45:28;3.13;;;2.25;;
79330;SDS011;68797;49.782;19.054;2023-07-20T17:48:42;2.08;;;1.75;;
79330;SDS011;68797;49.782;19.054;2023-07-20T17:51:16;2.50;;;1.70;;
79330;SDS011;68797;49.782;19.054;2023-07-20T17:53:56;3.10;;;2.05;;
79330;SDS011;68797;49.782;19.054;2023-07-20T17:57:19;3.45;;;2.20;;
79330;SDS011;68797;49.782;19.054;2023-07-20T18:00:29;3.55;;;2.03;;
79330;SDS011;68797;49.782;19.054;2023-07-20T18:03:25;4.03;;;2.08;;
79330;SDS011;68797;49.782;19.054;2023-07-20T18:06:07;4.25;;;2.20;;
79330;SDS011;68797;49.782;19.054;2023-07-20T18:08:47;5.50;;;2.42;;
79330;SDS011;68797;49.782;19.054;2023-07-20T18:11:34;4.28;;;2.35;;
79330;SDS011;68797;49.782;19.054;2023-07-20T18:14:08;3.28;;;2.00;;
79330;SDS011;68797;49.782;19.054;2023-07-20T18:16:42;2.63;;;2.05;;
79330;SDS011;68797;49.782;19.054;2023-07-20T18:19:17;3.60;;;2.10;;
79330;SDS011;68797;49.782;19.054;2023-07-20T18:25:50;3.97;;;1.88;;
79330;SDS011;68797;49.782;19.054;2023-07-20T18:28:35;6.55;;;2.15;;
79330;SDS011;68797;49.782;19.054;2023-07-20T18:31:17;5.05;;;2.10;;
79330;SDS011;68797;49.782;19.054;2023-07-20T18:33:54;2.50;;;1.90;;
79330;SDS011;68797;49.782;19.054;2023-07-20T18:36:42;2.88;;;1.88;;
79330;SDS011;68797;49.782;19.054;2023-07-20T18:39:29;2.35;;;1.70;;
79330;SDS011;68797;49.782;19.054;2023-07-20T18:42:49;2.42;;;1.52;;
79330;SDS011;68797;49.782;19.054;2023-07-20T18:45:18;2.88;;;1.70;;
79330;SDS011;68797;49.782;19.054;2023-07-20T18:48:04;2.28;;;2.00;;
79330;SDS011;68797;49.782;19.054;2023-07-20T18:50:44;2.95;;;2.20;;
79330;SDS011;68797;49.782;19.054;2023-07-20T18:53:22;3.10;;;1.83;;
79330;SDS011;68797;49.782;19.054;2023-07-20T18:56:37;2.05;;;1.83;;
79330;SDS011;68797;49.782;19.054;2023-07-20T18:59:50;3.38;;;1.80;;
79330;SDS011;68797;49.782;19.054;2023-07-20T19:03:06;2.40;;;1.75;;
79330;SDS011;68797;49.782;19.054;2023-07-20T19:05:44;2.65;;;1.90;;
79330;SDS011;68797;49.782;19.054;2023-07-20T19:08:26;3.45;;;1.90;;
79330;SDS011;68797;49.782;19.054;2023-07-20T19:11:16;3.05;;;2.10;;
79330;SDS011;68797;49.782;19.054;2023-07-20T19:14:23;2.75;;;1.77;;